createdAt,value
2019-03-17T00:02:05.290Z,96766.16
2019-03-17T00:04:41.132Z,96774.12
2019-03-17T00:07:15.709Z,96764.24
2019-03-17T00:09:50.291Z,96764.24
2019-03-17T00:12:25.261Z,96760.44
2019-03-17T00:15:05.180Z,96762.52
2019-03-17T00:17:36.271Z,96757.00
2019-03-17T00:20:11.487Z,96758.38
2019-03-17T00:22:46.035Z,96760.52
2019-03-17T00:25:20.741Z,96759.75
2019-03-17T00:27:53.715Z,96752.30
2019-03-17T00:30:28.293Z,96752.30
2019-03-17T00:33:03.305Z,96755.70
2019-03-17T00:35:37.976Z,96755.98
2019-03-17T00:38:12.630Z,96759.98
2019-03-17T00:40:47.296Z,96759.98
2019-03-17T00:43:24.706Z,96754.31
2019-03-17T00:45:59.289Z,96760.38
2019-03-17T00:48:33.779Z,96756.19
2019-03-17T00:51:07.403Z,96754.80
2019-03-17T00:53:41.806Z,96744.80
2019-03-17T00:56:14.862Z,96747.48
2019-03-17T00:58:49.266Z,96743.95
2019-03-17T01:01:24.964Z,96739.81
2019-03-17T01:03:59.802Z,96737.05
2019-03-17T01:06:34.155Z,96737.05
2019-03-17T01:09:09.420Z,96734.86
2019-03-17T01:11:44.442Z,96731.89
2019-03-17T01:14:18.994Z,96730.18
2019-03-17T01:16:53.492Z,96729.62
2019-03-17T01:19:28.287Z,96715.82
2019-03-17T01:22:02.949Z,96715.12
2019-03-17T01:24:37.437Z,96705.80
2019-03-17T01:27:12.122Z,96705.80
2019-03-17T01:29:46.793Z,96696.76
2019-03-17T01:32:21.290Z,96685.61
2019-03-17T01:35:08.253Z,96681.72
2019-03-17T01:37:31.078Z,96682.48
2019-03-17T01:40:05.704Z,96686.84
2019-03-17T01:42:40.277Z,96683.19
2019-03-17T01:45:15.137Z,96675.52
2019-03-17T01:47:49.688Z,96672.28
2019-03-17T01:50:24.277Z,96665.44
2019-03-17T01:52:58.949Z,96662.59
2019-03-17T01:55:33.333Z,96654.73
2019-03-17T01:58:07.958Z,96656.92
2019-03-17T02:00:42.698Z,96656.30
2019-03-17T02:03:17.291Z,96633.18
2019-03-17T02:05:51.954Z,96633.18
2019-03-17T02:08:26.699Z,96642.03
2019-03-17T02:11:01.301Z,96633.27
2019-03-17T02:13:35.958Z,96629.94
2019-03-17T02:16:10.693Z,96619.66
2019-03-17T02:18:45.290Z,96619.66
2019-03-17T02:21:19.942Z,96613.67
2019-03-17T02:23:54.342Z,96603.63
2019-03-17T02:26:29.139Z,96601.30
2019-03-17T02:29:03.720Z,96606.09
2019-03-17T02:31:38.298Z,96606.09
2019-03-17T02:34:13.148Z,96604.52
2019-03-17T02:36:47.894Z,96593.48
2019-03-17T02:39:21.074Z,96588.45
2019-03-17T02:41:55.328Z,96581.50
2019-03-17T02:44:29.937Z,96577.27
2019-03-17T02:47:03.868Z,96577.55
2019-03-17T02:49:38.265Z,96571.00
2019-03-17T02:52:13.175Z,96559.81
2019-03-17T02:54:47.745Z,96553.58
2019-03-17T02:57:22.294Z,96555.23
2019-03-17T02:59:56.955Z,96553.53
2019-03-17T03:02:30.284Z,96545.66
2019-03-17T03:05:04.648Z,96544.33
2019-03-17T03:07:40.086Z,96533.05
2019-03-17T03:10:15.186Z,96533.05
2019-03-17T03:12:50.360Z,96534.70
2019-03-17T03:15:24.955Z,96527.84
2019-03-17T03:17:59.749Z,96532.16
2019-03-17T03:20:34.348Z,96527.88
2019-03-17T03:25:22.953Z,96523.94
2019-03-17T03:27:56.288Z,96514.87
2019-03-17T03:30:30.737Z,96505.38
2019-03-17T03:33:05.138Z,96488.80
2019-03-17T03:35:39.758Z,96493.66
2019-03-17T03:38:12.709Z,96492.54
2019-03-17T03:40:47.115Z,96492.54
2019-03-17T03:43:21.901Z,96480.49
2019-03-17T03:45:56.290Z,96480.49
2019-03-17T03:48:30.880Z,96488.29
2019-03-17T03:51:04.074Z,96477.40
2019-03-17T03:53:38.293Z,96471.63
2019-03-17T03:56:12.728Z,96474.03
2019-03-17T03:58:47.290Z,96461.86
2019-03-17T04:01:21.756Z,96464.63
2019-03-17T04:03:56.291Z,96460.52
2019-03-17T04:06:30.898Z,96452.59
2019-03-17T04:09:05.071Z,96445.10
2019-03-17T04:11:38.092Z,96449.09
2019-03-17T04:14:13.654Z,96441.22
2019-03-17T04:16:48.280Z,96441.22
2019-03-17T04:19:22.902Z,96435.56
2019-03-17T04:21:56.282Z,96429.28
2019-03-17T04:24:30.677Z,96427.98
2019-03-17T04:27:05.281Z,96427.98
2019-03-17T04:29:39.960Z,96417.11
2019-03-17T04:32:14.271Z,96417.17
2019-03-17T04:34:48.769Z,96406.16
2019-03-17T04:37:23.261Z,96417.12
2019-03-17T04:39:58.279Z,96405.05
2019-03-17T04:42:33.752Z,96405.05
2019-03-17T04:45:08.649Z,96412.45
2019-03-17T04:47:43.265Z,96413.20
2019-03-17T04:50:17.824Z,96416.98
2019-03-17T04:52:52.113Z,96411.59
2019-03-17T04:55:25.025Z,96394.13
2019-03-17T05:00:44.963Z,96385.70
2019-03-17T05:03:21.285Z,96385.70
2019-03-17T05:05:56.101Z,96373.13
2019-03-17T05:08:31.300Z,96381.43
2019-03-17T05:11:05.729Z,96380.19
2019-03-17T05:13:40.275Z,96374.66
2019-03-17T05:16:14.735Z,96374.29
2019-03-17T05:18:49.284Z,96365.11
2019-03-17T05:21:23.739Z,96365.11
2019-03-17T05:23:58.297Z,96370.90
2019-03-17T05:26:32.956Z,96373.14
2019-03-17T05:29:07.739Z,96364.84
2019-03-17T05:31:42.277Z,96362.47
2019-03-17T05:34:16.750Z,96372.54
2019-03-17T05:36:51.131Z,96370.63
2019-03-17T05:39:26.667Z,96362.23
2019-03-17T05:42:01.077Z,96378.41
2019-03-17T05:44:35.608Z,96375.77
2019-03-17T05:47:10.285Z,96375.77
2019-03-17T05:49:44.911Z,96375.53
2019-03-17T05:52:17.853Z,96363.08
2019-03-17T05:54:53.890Z,96367.45
2019-03-17T05:57:26.867Z,96372.84
2019-03-17T06:00:01.001Z,96370.20
2019-03-17T06:02:36.686Z,96360.02
2019-03-17T06:05:11.655Z,96360.50
2019-03-17T06:07:46.270Z,96364.41
2019-03-17T06:10:20.688Z,96369.17
2019-03-17T06:12:55.270Z,96364.86
2019-03-17T06:15:29.729Z,96369.50
2019-03-17T06:18:04.267Z,96378.02
2019-03-17T06:20:38.711Z,96378.10
2019-03-17T06:23:11.657Z,96389.00
2019-03-17T06:25:45.946Z,96385.58
2019-03-17T06:28:21.667Z,96377.98
2019-03-17T06:30:55.118Z,96385.61
2019-03-17T06:33:29.661Z,96376.47
2019-03-17T06:36:04.115Z,96376.47
2019-03-17T06:38:38.868Z,96384.75
2019-03-17T06:41:13.286Z,96362.52
2019-03-17T06:43:47.774Z,96361.05
2019-03-17T06:46:20.749Z,96359.15
2019-03-17T06:48:55.134Z,96367.84
2019-03-17T06:51:29.709Z,96367.67
2019-03-17T06:54:04.289Z,96368.09
2019-03-17T06:56:38.710Z,96372.14
2019-03-17T06:59:13.278Z,96359.27
2019-03-17T07:01:47.743Z,96353.86
2019-03-17T07:04:22.288Z,96358.95
2019-03-17T07:06:56.881Z,96358.95
2019-03-17T07:09:32.569Z,96359.19
2019-03-17T07:12:07.142Z,96364.45
2019-03-17T07:14:41.943Z,96358.01
2019-03-17T07:17:15.104Z,96342.20
2019-03-17T07:19:49.944Z,96349.02
2019-03-17T07:22:25.763Z,96349.02
2019-03-17T07:25:00.358Z,96361.28
2019-03-17T07:27:34.936Z,96358.39
2019-03-17T07:30:10.667Z,96365.58
2019-03-17T07:32:44.940Z,96350.49
2019-03-17T07:35:18.184Z,96367.87
2019-03-17T07:37:57.002Z,96367.46
2019-03-17T07:40:28.938Z,96367.46
2019-03-17T07:43:03.319Z,96363.46
2019-03-17T07:45:37.953Z,96363.46
2019-03-17T07:48:12.666Z,96366.92
2019-03-17T07:50:47.266Z,96397.78
2019-03-17T07:53:22.294Z,96364.46
2019-03-17T07:55:57.097Z,96367.45
2019-03-17T07:58:31.739Z,96363.55
2019-03-17T08:01:06.272Z,96363.55
2019-03-17T08:03:40.932Z,96409.75
2019-03-17T08:06:14.105Z,96365.80
2019-03-17T08:08:48.371Z,96365.80
2019-03-17T08:11:23.110Z,96360.54
2019-03-17T08:13:57.855Z,96360.54
2019-03-17T08:16:31.453Z,96366.11
2019-03-17T08:19:06.307Z,96357.87
2019-03-17T08:21:43.304Z,96366.00
2019-03-17T08:24:17.307Z,96354.87
2019-03-17T08:26:51.883Z,96373.05
2019-03-17T08:29:25.067Z,96354.05
2019-03-17T08:31:59.389Z,96350.72
2019-03-17T08:34:34.310Z,96376.39
2019-03-17T08:37:09.097Z,96359.06
2019-03-17T08:39:43.785Z,96359.06
2019-03-17T08:42:18.583Z,96406.12
2019-03-17T08:44:53.290Z,96351.50
2019-03-17T08:47:27.958Z,96377.47
2019-03-17T08:50:02.690Z,96372.16
2019-03-17T08:52:37.277Z,96372.16
2019-03-17T08:55:12.057Z,96396.22
2019-03-17T08:57:46.706Z,96401.48
2019-03-17T09:00:19.860Z,96383.45
2019-03-17T09:02:54.284Z,96370.73
2019-03-17T09:05:29.108Z,96370.73
2019-03-17T09:08:03.884Z,96379.45
2019-03-17T09:10:38.315Z,96402.45
2019-03-17T09:13:13.263Z,96388.47
2019-03-17T09:15:48.284Z,96417.68
2019-03-17T09:18:23.201Z,96380.55
2019-03-17T09:20:58.306Z,96387.48
2019-03-17T09:23:32.884Z,96384.27
2019-03-17T09:26:07.436Z,96400.38
2019-03-17T09:28:42.111Z,96400.38
2019-03-17T09:31:16.748Z,96398.28
2019-03-17T09:33:50.072Z,96398.28
2019-03-17T09:36:25.110Z,96413.70
2019-03-17T09:38:59.869Z,96390.98
2019-03-17T09:41:34.299Z,96383.67
2019-03-17T09:44:08.751Z,96375.02
2019-03-17T09:46:43.279Z,96382.59
2019-03-17T09:49:17.950Z,96377.80
2019-03-17T09:51:52.369Z,96402.09
2019-03-17T09:54:27.080Z,96389.97
2019-03-17T09:57:01.664Z,96391.98
2019-03-17T09:59:36.275Z,96391.98
2019-03-17T10:02:10.916Z,96405.17
2019-03-17T10:04:45.343Z,96405.42
2019-03-17T10:07:19.929Z,96400.16
2019-03-17T10:09:53.150Z,96408.35
2019-03-17T10:12:27.739Z,96383.30
2019-03-17T10:15:02.326Z,96383.30
2019-03-17T10:17:36.943Z,96391.23
2019-03-17T10:20:14.938Z,96391.23
2019-03-17T10:22:49.982Z,96381.86
2019-03-17T10:25:24.666Z,96381.86
2019-03-17T10:27:57.689Z,96390.09
2019-03-17T10:30:32.266Z,96430.62
2019-03-17T10:34:37.116Z,96402.56
2019-03-17T10:37:11.795Z,96382.57
2019-03-17T10:39:44.862Z,96389.45
2019-03-17T10:42:19.278Z,96370.36
2019-03-17T10:44:53.933Z,96388.03
2019-03-17T10:47:28.048Z,96377.34
2019-03-17T10:50:02.323Z,96368.92
2019-03-17T10:52:37.082Z,96374.70
2019-03-17T10:55:13.041Z,96374.70
2019-03-17T10:57:47.321Z,96361.78
2019-03-17T11:00:21.953Z,96365.28
2019-03-17T11:02:56.347Z,96365.28
2019-03-17T11:05:30.952Z,96367.33
2019-03-17T11:08:05.336Z,96362.00
2019-03-17T11:10:40.126Z,96359.23
2019-03-17T11:13:14.941Z,96354.58
2019-03-17T11:15:49.790Z,96365.81
2019-03-17T11:18:22.823Z,96380.86
2019-03-17T11:20:57.357Z,96396.26
2019-03-17T11:23:31.946Z,96383.44
2019-03-17T11:26:06.945Z,96375.09
2019-03-17T11:28:41.361Z,96399.78
2019-03-17T11:31:16.104Z,96409.44
2019-03-17T11:33:50.740Z,96397.08
2019-03-17T11:36:25.385Z,96397.16
2019-03-17T11:39:00.135Z,96409.70
2019-03-17T11:41:35.256Z,96419.43
2019-03-17T11:44:09.870Z,96392.69
2019-03-17T11:46:44.067Z,96400.09
2019-03-17T11:49:18.407Z,96400.55
2019-03-17T11:51:52.947Z,96393.91
2019-03-17T11:54:26.275Z,96390.11
2019-03-17T11:57:01.143Z,96401.89
2019-03-17T11:59:35.682Z,96401.89
2019-03-17T12:02:10.307Z,96398.49
2019-03-17T12:04:44.937Z,96390.06
2019-03-17T12:07:19.574Z,96370.66
2019-03-17T12:09:54.258Z,96375.61
2019-03-17T12:12:28.952Z,96384.97
2019-03-17T12:15:03.927Z,96365.70
2019-03-17T12:17:38.845Z,96385.58
2019-03-17T12:20:13.934Z,96354.47
2019-03-17T12:22:49.302Z,96358.80
2019-03-17T12:25:23.945Z,96351.47
2019-03-17T12:27:58.916Z,96348.80
2019-03-17T12:30:33.619Z,96357.78
2019-03-17T12:33:09.688Z,96357.78
2019-03-17T12:35:42.659Z,96368.43
2019-03-17T12:41:01.909Z,96384.38
2019-03-17T12:43:36.297Z,96384.38
2019-03-17T12:46:13.371Z,96365.16
2019-03-17T12:48:47.947Z,96344.97
2019-03-17T12:51:22.343Z,96353.33
2019-03-17T12:53:57.269Z,96353.33
2019-03-17T12:56:32.275Z,96342.17
2019-03-17T12:59:06.943Z,96328.91
2019-03-17T13:01:41.310Z,96341.00
2019-03-17T13:04:16.109Z,96335.15
2019-03-17T13:06:50.797Z,96351.67
2019-03-17T13:09:24.034Z,96351.67
2019-03-17T13:11:58.360Z,96349.86
2019-03-17T13:14:32.952Z,96342.81
2019-03-17T13:17:07.612Z,96341.59
2019-03-17T13:19:42.076Z,96338.66
2019-03-17T13:22:17.961Z,96338.66
2019-03-17T13:24:52.660Z,96340.88
2019-03-17T13:27:27.110Z,96340.88
2019-03-17T13:30:01.656Z,96367.03
2019-03-17T13:32:36.072Z,96367.03
2019-03-17T13:35:11.280Z,96346.77
2019-03-17T13:37:45.949Z,96359.30
2019-03-17T13:40:28.828Z,96358.11
2019-03-17T13:42:56.365Z,96326.41
2019-03-17T13:45:30.945Z,96330.25
2019-03-17T13:48:05.315Z,96340.50
2019-03-17T13:50:39.933Z,96304.39
2019-03-17T13:53:14.303Z,96331.27
2019-03-17T13:55:49.088Z,96334.25
2019-03-17T13:58:23.588Z,96310.13
2019-03-17T14:00:58.257Z,96319.94
2019-03-17T14:03:32.766Z,96354.25
2019-03-17T14:06:07.254Z,96343.81
2019-03-17T14:08:41.944Z,96361.46
2019-03-17T14:11:16.411Z,96353.08
2019-03-17T14:13:51.063Z,96344.91
2019-03-17T14:16:25.865Z,96339.44
2019-03-17T14:18:58.857Z,96348.25
2019-03-17T14:21:33.118Z,96377.84
2019-03-17T14:24:09.264Z,96324.28
2019-03-17T14:26:43.914Z,96335.22
2019-03-17T14:29:18.282Z,96335.22
2019-03-17T14:31:52.937Z,96336.63
2019-03-17T14:34:27.343Z,96348.66
2019-03-17T14:37:01.878Z,96347.56
2019-03-17T14:39:34.861Z,96348.48
2019-03-17T14:42:09.268Z,96357.09
2019-03-17T14:44:43.941Z,96362.04
2019-03-17T14:47:18.657Z,96360.93
2019-03-17T14:49:53.139Z,96375.80
2019-03-17T14:52:27.776Z,96389.52
2019-03-17T14:55:02.098Z,96389.52
2019-03-17T14:57:36.875Z,96404.72
2019-03-17T15:00:15.269Z,96396.87
2019-03-17T15:02:49.742Z,96433.31
2019-03-17T15:05:25.447Z,96433.89
2019-03-17T15:07:59.948Z,96454.41
2019-03-17T15:10:34.422Z,96468.58
2019-03-17T15:13:08.940Z,96495.28
2019-03-17T15:15:43.365Z,96483.05
2019-03-17T15:18:18.282Z,96560.42
2019-03-17T15:20:53.127Z,96540.23
2019-03-17T15:23:27.943Z,96540.23
2019-03-17T15:26:02.354Z,96549.95
2019-03-17T15:28:37.341Z,96572.25
2019-03-17T15:31:12.583Z,96577.97
2019-03-17T15:33:47.269Z,96576.95
2019-03-17T15:36:21.905Z,96594.53
2019-03-17T15:38:56.261Z,96607.96
2019-03-17T15:41:31.129Z,96622.32
2019-03-17T15:44:05.946Z,96638.36
2019-03-17T15:46:40.286Z,96624.63
2019-03-17T15:49:14.942Z,96664.98
2019-03-17T15:51:49.510Z,96694.17
2019-03-17T15:54:24.254Z,96694.17
2019-03-17T15:56:59.257Z,96693.83
2019-03-17T15:59:33.774Z,96699.13
2019-03-17T16:02:08.288Z,96706.63
2019-03-17T16:04:42.701Z,96720.97
2019-03-17T16:07:17.278Z,96729.33
2019-03-17T16:10:37.953Z,96713.36
2019-03-17T16:13:12.755Z,96713.36
2019-03-17T16:15:46.076Z,96712.74
2019-03-17T16:18:20.303Z,96724.25
2019-03-17T16:20:55.115Z,96731.45
2019-03-17T16:23:29.717Z,96741.73
2019-03-17T16:26:04.599Z,96741.73
2019-03-17T16:28:39.183Z,96737.76
2019-03-17T16:31:13.628Z,96764.41
2019-03-17T16:33:48.133Z,96764.41
2019-03-17T16:36:22.752Z,96766.94
2019-03-17T16:38:57.314Z,96765.99
2019-03-17T16:41:42.826Z,96758.34
2019-03-17T16:44:08.323Z,96746.39
2019-03-17T16:46:43.332Z,96758.31
2019-03-17T16:49:17.946Z,96766.30
2019-03-17T16:51:52.693Z,96760.17
2019-03-17T16:54:25.859Z,96736.16
2019-03-17T16:56:59.634Z,96743.58
2019-03-17T16:59:34.284Z,96743.58
2019-03-17T17:02:09.298Z,96758.36
2019-03-17T17:04:44.343Z,96768.00
2019-03-17T17:09:53.478Z,96751.91
2019-03-17T17:12:32.773Z,96740.77
2019-03-17T17:15:10.307Z,96714.98
2019-03-17T17:17:45.240Z,96706.31
2019-03-17T17:20:25.802Z,96712.38
2019-03-17T17:23:00.704Z,96730.81
2019-03-17T17:25:35.285Z,96730.81
2019-03-17T17:28:10.137Z,96735.96
2019-03-17T17:30:45.115Z,96724.31
2019-03-17T17:33:19.949Z,96722.46
2019-03-17T17:35:54.677Z,96713.64
2019-03-17T17:38:29.308Z,96713.64
2019-03-17T17:41:04.128Z,96718.95
2019-03-17T17:43:38.756Z,96736.72
2019-03-17T17:46:13.354Z,96772.65
2019-03-17T17:48:48.076Z,96787.95
2019-03-17T17:51:22.669Z,96788.19
2019-03-17T17:53:57.251Z,96788.19
2019-03-17T17:56:32.490Z,96793.30
2019-03-17T17:59:07.119Z,96810.55
2019-03-17T18:01:42.029Z,96819.58
2019-03-17T18:04:16.371Z,96829.86
2019-03-17T18:06:51.128Z,96832.77
2019-03-17T18:09:25.935Z,96835.75
2019-03-17T18:14:15.698Z,96840.20
2019-03-17T18:16:48.870Z,96845.49
2019-03-17T18:19:23.286Z,96858.28
2019-03-17T18:21:57.940Z,96858.56
2019-03-17T18:24:32.348Z,96840.19
2019-03-17T18:27:07.239Z,96840.19
2019-03-17T18:29:42.095Z,96853.98
2019-03-17T18:32:17.035Z,96854.73
2019-03-17T18:34:53.559Z,96868.38
2019-03-17T18:37:28.264Z,96867.31
2019-03-17T18:40:03.260Z,96869.48
2019-03-17T18:42:38.274Z,96865.27
2019-03-17T18:45:15.697Z,96851.63
2019-03-17T18:47:50.279Z,96852.92
2019-03-17T18:50:24.722Z,96846.54
2019-03-17T18:52:59.323Z,96834.16
2019-03-17T18:55:34.277Z,96826.02
2019-03-17T18:58:08.843Z,96828.79
2019-03-17T19:00:43.291Z,96847.70
2019-03-17T19:03:18.114Z,96847.70
2019-03-17T19:05:52.778Z,96864.20
2019-03-17T19:08:25.999Z,96848.77
2019-03-17T19:11:00.337Z,96834.05
2019-03-17T19:13:34.939Z,96845.31
2019-03-17T19:16:09.694Z,96838.73
2019-03-17T19:18:44.288Z,96838.73
2019-03-17T19:21:19.116Z,96851.75
2019-03-17T19:23:53.723Z,96851.23
2019-03-17T19:26:28.247Z,96851.23
2019-03-17T19:29:03.682Z,96858.21
2019-03-17T19:31:38.486Z,96866.79
2019-03-17T19:34:13.067Z,96867.00
2019-03-17T19:36:48.680Z,96880.60
2019-03-17T19:40:49.127Z,96877.85
2019-03-17T19:43:23.730Z,96887.83
2019-03-17T19:45:57.050Z,96884.13
2019-03-17T19:48:31.330Z,96891.25
2019-03-17T19:51:05.944Z,96899.05
2019-03-17T19:53:40.268Z,96906.00
2019-03-17T19:56:14.713Z,96891.11
2019-03-17T19:58:49.281Z,96894.84
2019-03-17T20:01:23.737Z,96902.69
2019-03-17T20:03:58.269Z,96914.11
2019-03-17T20:06:32.939Z,96920.59
2019-03-17T20:09:08.099Z,96928.92
2019-03-17T20:11:42.734Z,96908.20
2019-03-17T20:14:17.279Z,96908.20
2019-03-17T20:16:51.817Z,96897.85
2019-03-17T20:19:25.030Z,96888.80
2019-03-17T20:21:58.087Z,96907.75
2019-03-17T20:24:33.381Z,96913.97
2019-03-17T20:27:07.930Z,96947.41
2019-03-17T20:29:43.439Z,96979.95
2019-03-17T20:32:18.283Z,96965.74
2019-03-17T20:34:55.683Z,96971.00
2019-03-17T20:39:10.290Z,97002.92
2019-03-17T20:41:45.292Z,96982.96
2019-03-17T20:44:20.023Z,96982.96
2019-03-17T20:46:54.949Z,97019.53
2019-03-17T20:51:28.765Z,97019.87
2019-03-17T20:54:03.376Z,97030.08
2019-03-17T20:56:38.306Z,97040.30
2019-03-17T20:59:13.752Z,97039.11
2019-03-17T21:01:48.598Z,97043.70
2019-03-17T21:04:24.283Z,97050.89
2019-03-17T21:06:59.008Z,97053.34
2019-03-17T21:09:33.756Z,97059.68
2019-03-17T21:12:08.294Z,97051.08
2019-03-17T21:14:42.952Z,97066.73
2019-03-17T21:17:16.034Z,97077.10
2019-03-17T21:19:49.487Z,97067.27
2019-03-17T21:22:26.120Z,97055.33
2019-03-17T21:25:00.736Z,97063.74
2019-03-17T21:27:35.292Z,97063.74
2019-03-17T21:30:19.390Z,97057.20
2019-03-17T21:32:53.948Z,97054.56
2019-03-17T21:35:27.113Z,97060.56
2019-03-17T21:38:01.354Z,97056.25
2019-03-17T21:44:01.763Z,97074.45
2019-03-17T21:46:36.305Z,97069.98
2019-03-17T21:49:11.139Z,97063.44
2019-03-17T21:51:45.807Z,97076.75
2019-03-17T21:54:19.288Z,97086.84
2019-03-17T21:56:54.076Z,97070.52
2019-03-17T21:59:28.647Z,97064.63
2019-03-17T22:02:12.377Z,97064.63
2019-03-17T22:04:39.364Z,97061.38
2019-03-17T22:07:13.915Z,97051.59
2019-03-17T22:09:50.335Z,97071.02
2019-03-17T22:12:24.963Z,97070.68
2019-03-17T22:14:58.097Z,97077.52
2019-03-17T22:17:31.074Z,97086.54
2019-03-17T22:20:05.139Z,97099.67
2019-03-17T22:22:39.640Z,97079.38
2019-03-17T22:25:15.190Z,97079.38
2019-03-17T22:27:49.711Z,97081.37
2019-03-17T22:30:24.304Z,97086.66
2019-03-17T22:32:58.891Z,97101.81
2019-03-17T22:35:33.407Z,97097.89
2019-03-17T22:38:07.875Z,97084.03
2019-03-17T22:40:42.277Z,97085.08
2019-03-17T22:43:16.760Z,97099.48
2019-03-17T22:45:51.268Z,97101.03
2019-03-17T22:48:25.934Z,97106.41
2019-03-17T22:51:00.360Z,97108.11
2019-03-17T22:53:34.896Z,97105.05
2019-03-17T22:56:07.874Z,97117.14
2019-03-17T22:58:42.134Z,97121.72
2019-03-17T23:01:17.181Z,97124.03
2019-03-17T23:03:51.903Z,97127.73
2019-03-17T23:06:25.064Z,97123.86
2019-03-17T23:08:59.288Z,97132.11
2019-03-17T23:11:33.750Z,97153.11
2019-03-17T23:14:08.279Z,97156.48
2019-03-17T23:16:42.724Z,97165.34
2019-03-17T23:19:17.132Z,97151.40
2019-03-17T23:21:51.778Z,97152.94
2019-03-17T23:24:26.288Z,97145.13
2019-03-17T23:27:02.284Z,97139.81
2019-03-17T23:29:36.791Z,97147.94
2019-03-17T23:32:11.288Z,97143.97
2019-03-17T23:34:46.283Z,97161.55
2019-03-17T23:37:22.263Z,97165.22
2019-03-17T23:39:57.879Z,97160.64
2019-03-17T23:42:30.818Z,97154.95
2019-03-17T23:45:05.263Z,97148.06
2019-03-17T23:47:39.915Z,97147.94
2019-03-17T23:50:13.300Z,97150.55
2019-03-17T23:52:47.691Z,97170.53
2019-03-17T23:55:22.284Z,97170.53
2019-03-17T23:57:56.728Z,97164.77
